sensor_id;sensor_type;location;lat;lon;timestamp;pressure;altitude;pressure_sealevel;temperature;humidity
41515;BME280;27247;48.020;16.720;2023-01-30T00:01:23;100529.75;;;-7.94;74.97
41515;BME280;27247;48.020;16.720;2023-01-30T00:05:34;100531.84;;;-8.07;75.36
41515;BME280;27247;48.020;16.720;2023-01-30T00:09:44;100534.09;;;-7.94;77.03
41515;BME280;27247;48.020;16.720;2023-01-30T00:13:56;100531.03;;;-8.09;79.48
41515;BME280;27247;48.020;16.720;2023-01-30T00:18:07;100517.72;;;-8.60;84.21
41515;BME280;27247;48.020;16.720;2023-01-30T00:22:17;100507.97;;;-8.84;86.62
41515;BME280;27247;48.020;16.720;2023-01-30T00:26:28;100510.13;;;-8.67;86.97
41515;BME280;27247;48.020;16.720;2023-01-30T00:30:38;100502.78;;;-8.50;87.05
41515;BME280;27247;48.020;16.720;2023-01-30T00:34:48;100496.06;;;-8.25;87.18
41515;BME280;27247;48.020;16.720;2023-01-30T00:38:59;100484.50;;;-8.13;87.48
41515;BME280;27247;48.020;16.720;2023-01-30T00:43:11;100480.13;;;-8.11;86.58
41515;BME280;27247;48.020;16.720;2023-01-30T00:47:40;100477.06;;;-7.94;86.47
41515;BME280;27247;48.020;16.720;2023-01-30T00:51:51;100478.34;;;-8.09;85.85
41515;BME280;27247;48.020;16.720;2023-01-30T00:56:01;100472.44;;;-8.14;84.59
41515;BME280;27247;48.020;16.720;2023-01-30T01:00:12;100466.13;;;-8.37;82.77
41515;BME280;27247;48.020;16.720;2023-01-30T01:04:23;100461.13;;;-8.75;81.19
41515;BME280;27247;48.020;16.720;2023-01-30T01:08:33;100453.22;;;-8.71;81.80
41515;BME280;27247;48.020;16.720;2023-01-30T01:12:44;100437.19;;;-8.85;82.05
41515;BME280;27247;48.020;16.720;2023-01-30T01:16:55;100435.22;;;-8.75;82.08
41515;BME280;27247;48.020;16.720;2023-01-30T01:21:05;100423.28;;;-9.15;81.66
41515;BME280;27247;48.020;16.720;2023-01-30T01:25:16;100414.88;;;-9.23;82.54
41515;BME280;27247;48.020;16.720;2023-01-30T01:29:28;100402.78;;;-9.22;82.79
41515;BME280;27247;48.020;16.720;2023-01-30T01:33:38;100391.97;;;-9.04;82.86
41515;BME280;27247;48.020;16.720;2023-01-30T01:37:52;100388.78;;;-8.81;82.82
41515;BME280;27247;48.020;16.720;2023-01-30T01:42:03;100378.25;;;-8.75;83.31
41515;BME280;27247;48.020;16.720;2023-01-30T01:46:21;100377.06;;;-8.63;83.36
41515;BME280;27247;48.020;16.720;2023-01-30T01:50:52;100379.63;;;-8.62;83.12
41515;BME280;27247;48.020;16.720;2023-01-30T01:55:06;100371.47;;;-8.48;83.34
41515;BME280;27247;48.020;16.720;2023-01-30T01:59:25;100368.56;;;-8.38;82.93
41515;BME280;27247;48.020;16.720;2023-01-30T02:03:41;100363.44;;;-8.39;83.42
41515;BME280;27247;48.020;16.720;2023-01-30T02:08:16;100354.28;;;-8.51;83.94
41515;BME280;27247;48.020;16.720;2023-01-30T02:12:26;100354.47;;;-8.58;84.34
41515;BME280;27247;48.020;16.720;2023-01-30T02:16:37;100344.28;;;-8.64;84.61
41515;BME280;27247;48.020;16.720;2023-01-30T02:25:17;100329.91;;;-8.75;85.44
41515;BME280;27247;48.020;16.720;2023-01-30T02:34:03;100322.47;;;-8.56;87.35
41515;BME280;27247;48.020;16.720;2023-01-30T02:42:43;100305.34;;;-8.32;87.89
41515;BME280;27247;48.020;16.720;2023-01-30T02:47:03;100301.59;;;-8.22;85.57
41515;BME280;27247;48.020;16.720;2023-01-30T02:51:19;100301.53;;;-8.20;85.38
41515;BME280;27247;48.020;16.720;2023-01-30T02:55:31;100301.81;;;-8.29;83.31
41515;BME280;27247;48.020;16.720;2023-01-30T02:59:45;100297.06;;;-8.43;84.07
41515;BME280;27247;48.020;16.720;2023-01-30T03:17:50;100261.38;;;-9.23;80.91
41515;BME280;27247;48.020;16.720;2023-01-30T03:22:00;100253.19;;;-9.75;79.54
41515;BME280;27247;48.020;16.720;2023-01-30T03:26:19;100252.59;;;-9.84;78.54
41515;BME280;27247;48.020;16.720;2023-01-30T03:30:31;100249.91;;;-9.47;80.26
41515;BME280;27247;48.020;16.720;2023-01-30T03:34:42;100240.59;;;-9.54;81.78
41515;BME280;27247;48.020;16.720;2023-01-30T03:38:52;100238.59;;;-9.43;82.44
41515;BME280;27247;48.020;16.720;2023-01-30T03:43:02;100241.25;;;-9.46;82.36
41515;BME280;27247;48.020;16.720;2023-01-30T03:47:13;100234.94;;;-9.69;80.37
41515;BME280;27247;48.020;16.720;2023-01-30T03:51:23;100230.75;;;-9.73;80.66
41515;BME280;27247;48.020;16.720;2023-01-30T03:55:34;100221.28;;;-9.74;81.14
41515;BME280;27247;48.020;16.720;2023-01-30T03:59:44;100214.91;;;-9.60;81.95
41515;BME280;27247;48.020;16.720;2023-01-30T04:03:54;100220.97;;;-9.61;83.09
41515;BME280;27247;48.020;16.720;2023-01-30T04:08:05;100222.00;;;-9.35;83.74
41515;BME280;27247;48.020;16.720;2023-01-30T04:12:15;100207.84;;;-9.21;84.32
41515;BME280;27247;48.020;16.720;2023-01-30T04:16:26;100204.00;;;-9.08;83.80
41515;BME280;27247;48.020;16.720;2023-01-30T04:20:36;100187.63;;;-9.40;82.50
41515;BME280;27247;48.020;16.720;2023-01-30T04:24:47;100191.50;;;-9.56;84.75
41515;BME280;27247;48.020;16.720;2023-01-30T04:28:58;100201.94;;;-9.59;85.86
41515;BME280;27247;48.020;16.720;2023-01-30T04:33:08;100188.84;;;-9.53;86.18
41515;BME280;27247;48.020;16.720;2023-01-30T04:37:18;100188.47;;;-9.39;86.95
41515;BME280;27247;48.020;16.720;2023-01-30T04:41:29;100169.66;;;-9.44;86.69
41515;BME280;27247;48.020;16.720;2023-01-30T04:45:43;100178.84;;;-9.65;86.38
41515;BME280;27247;48.020;16.720;2023-01-30T04:49:54;100180.19;;;-9.52;87.40
41515;BME280;27247;48.020;16.720;2023-01-30T04:54:05;100176.84;;;-9.55;85.81
41515;BME280;27247;48.020;16.720;2023-01-30T04:58:16;100170.88;;;-9.57;85.75
41515;BME280;27247;48.020;16.720;2023-01-30T05:02:28;100165.53;;;-9.51;86.42
41515;BME280;27247;48.020;16.720;2023-01-30T05:06:38;100161.41;;;-9.26;86.06
41515;BME280;27247;48.020;16.720;2023-01-30T05:10:49;100177.56;;;-9.18;86.85
41515;BME280;27247;48.020;16.720;2023-01-30T05:14:59;100173.53;;;-8.98;87.22
41515;BME280;27247;48.020;16.720;2023-01-30T05:19:11;100152.47;;;-8.86;87.00
41515;BME280;27247;48.020;16.720;2023-01-30T05:23:22;100136.03;;;-8.85;86.92
41515;BME280;27247;48.020;16.720;2023-01-30T05:27:32;100147.28;;;-8.86;83.25
41515;BME280;27247;48.020;16.720;2023-01-30T05:31:43;100138.38;;;-9.06;83.42
41515;BME280;27247;48.020;16.720;2023-01-30T05:35:53;100120.00;;;-9.26;84.25
41515;BME280;27247;48.020;16.720;2023-01-30T05:40:05;100123.03;;;-9.12;85.46
41515;BME280;27247;48.020;16.720;2023-01-30T05:44:15;100123.84;;;-9.10;87.63
41515;BME280;27247;48.020;16.720;2023-01-30T05:48:26;100114.09;;;-9.02;89.17
41515;BME280;27247;48.020;16.720;2023-01-30T05:52:37;100104.50;;;-8.98;90.64
41515;BME280;27247;48.020;16.720;2023-01-30T05:56:49;100097.06;;;-8.81;91.56
41515;BME280;27247;48.020;16.720;2023-01-30T06:01:01;100098.31;;;-8.66;92.50
41515;BME280;27247;48.020;16.720;2023-01-30T06:05:11;100098.84;;;-8.56;92.57
41515;BME280;27247;48.020;16.720;2023-01-30T06:09:22;100102.78;;;-8.45;92.56
41515;BME280;27247;48.020;16.720;2023-01-30T06:13:33;100116.03;;;-8.54;91.69
41515;BME280;27247;48.020;16.720;2023-01-30T06:17:43;100114.00;;;-8.44;91.41
41515;BME280;27247;48.020;16.720;2023-01-30T06:21:54;100109.91;;;-8.51;90.91
41515;BME280;27247;48.020;16.720;2023-01-30T06:26:04;100098.66;;;-8.50;90.24
41515;BME280;27247;48.020;16.720;2023-01-30T06:30:15;100093.91;;;-8.38;91.21
41515;BME280;27247;48.020;16.720;2023-01-30T06:34:25;100111.28;;;-8.15;91.76
41515;BME280;27247;48.020;16.720;2023-01-30T06:38:35;100115.31;;;-8.06;92.06
41515;BME280;27247;48.020;16.720;2023-01-30T06:42:47;100111.41;;;-7.93;92.19
41515;BME280;27247;48.020;16.720;2023-01-30T06:46:57;100104.88;;;-7.80;91.66
41515;BME280;27247;48.020;16.720;2023-01-30T06:51:08;100076.03;;;-7.70;91.23
41515;BME280;27247;48.020;16.720;2023-01-30T06:55:23;100070.09;;;-7.74;91.58
41515;BME280;27247;48.020;16.720;2023-01-30T06:59:34;100050.31;;;-7.77;91.46
41515;BME280;27247;48.020;16.720;2023-01-30T07:03:44;100075.66;;;-7.60;91.55
41515;BME280;27247;48.020;16.720;2023-01-30T07:07:55;100068.31;;;-7.49;92.04
41515;BME280;27247;48.020;16.720;2023-01-30T07:12:05;100069.44;;;-7.32;92.14
41515;BME280;27247;48.020;16.720;2023-01-30T07:16:16;100054.09;;;-7.38;91.06
41515;BME280;27247;48.020;16.720;2023-01-30T07:20:26;100050.03;;;-7.46;91.57
41515;BME280;27247;48.020;16.720;2023-01-30T07:24:39;100063.97;;;-7.25;92.50
41515;BME280;27247;48.020;16.720;2023-01-30T07:28:50;100054.44;;;-7.24;93.70
41515;BME280;27247;48.020;16.720;2023-01-30T07:33:02;100058.81;;;-7.03;94.39
41515;BME280;27247;48.020;16.720;2023-01-30T07:37:13;100076.81;;;-6.98;94.03
41515;BME280;27247;48.020;16.720;2023-01-30T07:41:23;100075.84;;;-6.74;94.62
41515;BME280;27247;48.020;16.720;2023-01-30T07:49:51;100075.00;;;-6.32;94.28
41515;BME280;27247;48.020;16.720;2023-01-30T07:54:02;100078.00;;;-6.21;94.50
41515;BME280;27247;48.020;16.720;2023-01-30T07:58:14;100076.00;;;-6.15;94.47
41515;BME280;27247;48.020;16.720;2023-01-30T08:02:26;100085.69;;;-5.98;96.21
41515;BME280;27247;48.020;16.720;2023-01-30T08:06:37;100080.88;;;-5.68;97.87
41515;BME280;27247;48.020;16.720;2023-01-30T08:10:48;100070.06;;;-5.40;99.32
41515;BME280;27247;48.020;16.720;2023-01-30T08:14:58;100068.47;;;-5.24;99.79
41515;BME280;27247;48.020;16.720;2023-01-30T08:19:08;100054.91;;;-5.11;99.91
41515;BME280;27247;48.020;16.720;2023-01-30T08:23:19;100061.94;;;-5.13;98.13
41515;BME280;27247;48.020;16.720;2023-01-30T08:27:29;100055.09;;;-4.97;98.77
41515;BME280;27247;48.020;16.720;2023-01-30T08:31:39;100032.34;;;-4.94;99.28
41515;BME280;27247;48.020;16.720;2023-01-30T08:35:50;100021.31;;;-4.82;98.96
41515;BME280;27247;48.020;16.720;2023-01-30T08:40:01;100010.22;;;-4.68;98.57
41515;BME280;27247;48.020;16.720;2023-01-30T08:44:11;100001.19;;;-4.61;98.81
41515;BME280;27247;48.020;16.720;2023-01-30T08:48:22;100006.78;;;-4.34;97.80
41515;BME280;27247;48.020;16.720;2023-01-30T08:52:32;99991.91;;;-4.14;95.45
41515;BME280;27247;48.020;16.720;2023-01-30T08:56:43;99970.03;;;-4.12;95.64
41515;BME280;27247;48.020;16.720;2023-01-30T09:00:53;99964.44;;;-3.89;96.06
41515;BME280;27247;48.020;16.720;2023-01-30T09:05:05;99961.53;;;-3.51;95.90
41515;BME280;27247;48.020;16.720;2023-01-30T09:09:16;99950.75;;;-3.29;94.58
41515;BME280;27247;48.020;16.720;2023-01-30T09:13:26;99944.47;;;-2.95;95.73
41515;BME280;27247;48.020;16.720;2023-01-30T09:17:37;99945.44;;;-2.52;96.18
41515;BME280;27247;48.020;16.720;2023-01-30T09:21:49;99934.78;;;-2.05;95.66
41515;BME280;27247;48.020;16.720;2023-01-30T09:26:01;99925.56;;;-1.55;93.38
41515;BME280;27247;48.020;16.720;2023-01-30T09:30:11;99897.47;;;-1.26;88.96
41515;BME280;27247;48.020;16.720;2023-01-30T09:34:22;99897.59;;;-1.27;87.18
41515;BME280;27247;48.020;16.720;2023-01-30T09:38:37;99909.06;;;-1.16;87.83
41515;BME280;27247;48.020;16.720;2023-01-30T09:47:13;99885.19;;;-0.21;87.09
41515;BME280;27247;48.020;16.720;2023-01-30T09:51:42;99885.84;;;0.32;82.56
41515;BME280;27247;48.020;16.720;2023-01-30T09:55:57;99881.34;;;0.58;78.78
41515;BME280;27247;48.020;16.720;2023-01-30T10:00:16;99861.94;;;0.72;78.34
41515;BME280;27247;48.020;16.720;2023-01-30T10:04:36;99844.78;;;0.90;77.07
41515;BME280;27247;48.020;16.720;2023-01-30T10:08:58;99823.97;;;1.11;72.35
41515;BME280;27247;48.020;16.720;2023-01-30T10:26:18;99773.03;;;1.79;70.33
41515;BME280;27247;48.020;16.720;2023-01-30T10:30:29;99772.38;;;2.20;71.13
41515;BME280;27247;48.020;16.720;2023-01-30T10:34:43;99757.22;;;2.65;69.56
41515;BME280;27247;48.020;16.720;2023-01-30T10:38:58;99743.91;;;2.87;69.18
41515;BME280;27247;48.020;16.720;2023-01-30T10:43:31;99731.63;;;2.77;71.71
41515;BME280;27247;48.020;16.720;2023-01-30T10:56:41;99697.88;;;2.39;74.09
41515;BME280;27247;48.020;16.720;2023-01-30T11:01:00;99691.31;;;2.33;74.59
41515;BME280;27247;48.020;16.720;2023-01-30T11:05:19;99684.75;;;2.28;74.49
41515;BME280;27247;48.020;16.720;2023-01-30T11:09:43;99665.53;;;2.37;73.12
41515;BME280;27247;48.020;16.720;2023-01-30T11:18:12;99648.75;;;2.59;73.79
41515;BME280;27247;48.020;16.720;2023-01-30T11:22:24;99648.81;;;2.68;73.83
41515;BME280;27247;48.020;16.720;2023-01-30T11:26:37;99649.56;;;2.80;72.58
41515;BME280;27247;48.020;16.720;2023-01-30T11:30:53;99648.34;;;2.84;74.51
41515;BME280;27247;48.020;16.720;2023-01-30T11:43:27;99628.72;;;2.77;79.96
41515;BME280;27247;48.020;16.720;2023-01-30T11:47:46;99592.88;;;3.05;76.48
41515;BME280;27247;48.020;16.720;2023-01-30T11:51:58;99579.13;;;3.70;73.95
41515;BME280;27247;48.020;16.720;2023-01-30T12:00:39;99549.63;;;3.84;73.72
41515;BME280;27247;48.020;16.720;2023-01-30T12:04:54;99545.47;;;3.82;74.95
41515;BME280;27247;48.020;16.720;2023-01-30T12:09:27;99533.22;;;4.00;77.78
41515;BME280;27247;48.020;16.720;2023-01-30T12:13:41;99509.06;;;4.42;76.51
41515;BME280;27247;48.020;16.720;2023-01-30T12:18:11;99497.53;;;4.98;75.59
41515;BME280;27247;48.020;16.720;2023-01-30T12:22:41;99478.75;;;5.36;74.06
41515;BME280;27247;48.020;16.720;2023-01-30T12:27:03;99476.94;;;5.55;74.09
41515;BME280;27247;48.020;16.720;2023-01-30T12:31:23;99466.41;;;5.63;73.33
41515;BME280;27247;48.020;16.720;2023-01-30T12:57:34;99491.25;;;5.44;74.14
41515;BME280;27247;48.020;16.720;2023-01-30T13:02:02;99511.16;;;5.03;76.55
41515;BME280;27247;48.020;16.720;2023-01-30T13:06:29;99523.13;;;4.79;77.53
41515;BME280;27247;48.020;16.720;2023-01-30T13:10:49;99527.22;;;4.64;77.92
41515;BME280;27247;48.020;16.720;2023-01-30T13:28:05;99531.53;;;4.28;77.04
41515;BME280;27247;48.020;16.720;2023-01-30T13:36:41;99543.06;;;4.08;78.74
41515;BME280;27247;48.020;16.720;2023-01-30T13:40:56;99561.19;;;4.03;79.14
41515;BME280;27247;48.020;16.720;2023-01-30T13:45:15;99548.94;;;3.82;80.82
41515;BME280;27247;48.020;16.720;2023-01-30T13:50:11;99545.63;;;3.71;82.25
41515;BME280;27247;48.020;16.720;2023-01-30T13:54:41;99542.28;;;3.49;83.90
41515;BME280;27247;48.020;16.720;2023-01-30T13:59:02;99531.28;;;3.35;84.54
41515;BME280;27247;48.020;16.720;2023-01-30T14:03:22;99553.50;;;3.23;85.32
41515;BME280;27247;48.020;16.720;2023-01-30T14:07:38;99536.59;;;3.04;87.48
41515;BME280;27247;48.020;16.720;2023-01-30T14:11:56;99530.16;;;2.87;89.84
41515;BME280;27247;48.020;16.720;2023-01-30T14:16:07;99547.19;;;2.74;90.89
41515;BME280;27247;48.020;16.720;2023-01-30T14:20:19;99541.88;;;2.64;91.97
41515;BME280;27247;48.020;16.720;2023-01-30T14:24:30;99522.03;;;2.60;92.97
41515;BME280;27247;48.020;16.720;2023-01-30T14:28:45;99540.00;;;2.45;94.39
41515;BME280;27247;48.020;16.720;2023-01-30T14:32:57;99524.44;;;2.42;94.85
41515;BME280;27247;48.020;16.720;2023-01-30T14:37:45;99519.69;;;2.36;95.52
41515;BME280;27247;48.020;16.720;2023-01-30T14:42:31;99509.63;;;2.20;96.16
41515;BME280;27247;48.020;16.720;2023-01-30T14:46:42;99520.09;;;2.32;96.11
41515;BME280;27247;48.020;16.720;2023-01-30T14:55:37;99521.09;;;2.40;95.05
41515;BME280;27247;48.020;16.720;2023-01-30T14:59:56;99523.78;;;2.50;94.83
41515;BME280;27247;48.020;16.720;2023-01-30T15:04:13;99524.63;;;2.50;95.19
41515;BME280;27247;48.020;16.720;2023-01-30T15:08:25;99545.00;;;2.48;95.09
41515;BME280;27247;48.020;16.720;2023-01-30T15:26:09;99567.88;;;2.69;91.67
41515;BME280;27247;48.020;16.720;2023-01-30T15:39:26;99561.13;;;2.85;89.50
41515;BME280;27247;48.020;16.720;2023-01-30T15:52:17;99555.75;;;2.97;87.67
41515;BME280;27247;48.020;16.720;2023-01-30T15:56:30;99565.03;;;2.91;87.95
41515;BME280;27247;48.020;16.720;2023-01-30T16:01:11;99561.56;;;2.91;87.59
41515;BME280;27247;48.020;16.720;2023-01-30T16:05:26;99561.84;;;2.87;87.76
41515;BME280;27247;48.020;16.720;2023-01-30T16:09:37;99572.25;;;2.89;88.24
41515;BME280;27247;48.020;16.720;2023-01-30T16:13:47;99572.91;;;2.81;89.07
41515;BME280;27247;48.020;16.720;2023-01-30T16:18:05;99565.13;;;2.80;88.84
41515;BME280;27247;48.020;16.720;2023-01-30T16:22:19;99580.97;;;2.80;88.23
41515;BME280;27247;48.020;16.720;2023-01-30T16:26:34;99589.44;;;2.83;87.99
41515;BME280;27247;48.020;16.720;2023-01-30T16:30:45;99579.28;;;2.79;87.73
41515;BME280;27247;48.020;16.720;2023-01-30T16:39:39;99574.31;;;2.85;87.19
41515;BME280;27247;48.020;16.720;2023-01-30T16:44:16;99582.91;;;2.78;87.59
41515;BME280;27247;48.020;16.720;2023-01-30T16:48:34;99586.13;;;2.81;87.61
41515;BME280;27247;48.020;16.720;2023-01-30T16:52:50;99591.53;;;2.80;88.23
41515;BME280;27247;48.020;16.720;2023-01-30T16:57:01;99571.81;;;2.84;88.16
41515;BME280;27247;48.020;16.720;2023-01-30T17:01:12;99561.16;;;2.95;87.44
41515;BME280;27247;48.020;16.720;2023-01-30T17:05:28;99567.44;;;3.04;86.71
41515;BME280;27247;48.020;16.720;2023-01-30T17:18:24;99592.09;;;3.14;85.59
41515;BME280;27247;48.020;16.720;2023-01-30T17:22:36;99618.88;;;3.09;85.99
41515;BME280;27247;48.020;16.720;2023-01-30T17:26:49;99601.22;;;3.10;86.43
41515;BME280;27247;48.020;16.720;2023-01-30T17:31:00;99628.00;;;3.05;86.41
41515;BME280;27247;48.020;16.720;2023-01-30T17:35:11;99635.63;;;2.99;86.66
41515;BME280;27247;48.020;16.720;2023-01-30T17:39:23;99631.72;;;2.93;86.67
41515;BME280;27247;48.020;16.720;2023-01-30T17:43:36;99643.50;;;2.89;86.63
41515;BME280;27247;48.020;16.720;2023-01-30T17:47:47;99661.59;;;2.94;86.63
41515;BME280;27247;48.020;16.720;2023-01-30T17:51:57;99655.47;;;2.93;86.95
41515;BME280;27247;48.020;16.720;2023-01-30T17:56:38;99662.50;;;2.83;87.55
41515;BME280;27247;48.020;16.720;2023-01-30T18:00:49;99660.00;;;2.81;87.42
41515;BME280;27247;48.020;16.720;2023-01-30T18:05:02;99671.91;;;2.76;88.17
41515;BME280;27247;48.020;16.720;2023-01-30T18:09:22;99672.69;;;2.67;88.53
41515;BME280;27247;48.020;16.720;2023-01-30T18:13:33;99680.84;;;2.64;88.87
41515;BME280;27247;48.020;16.720;2023-01-30T18:17:46;99663.03;;;2.56;89.06
41515;BME280;27247;48.020;16.720;2023-01-30T18:21:57;99673.59;;;2.56;88.95
41515;BME280;27247;48.020;16.720;2023-01-30T18:26:10;99682.59;;;2.53;88.65
41515;BME280;27247;48.020;16.720;2023-01-30T18:30:21;99679.81;;;2.55;88.38
41515;BME280;27247;48.020;16.720;2023-01-30T18:34:34;99674.88;;;2.62;87.81
41515;BME280;27247;48.020;16.720;2023-01-30T18:38:46;99669.34;;;2.65;87.78
41515;BME280;27247;48.020;16.720;2023-01-30T18:42:57;99680.28;;;2.60;88.14
41515;BME280;27247;48.020;16.720;2023-01-30T18:47:07;99657.50;;;2.59;88.82
41515;BME280;27247;48.020;16.720;2023-01-30T18:51:21;99673.06;;;2.62;88.87
41515;BME280;27247;48.020;16.720;2023-01-30T18:55:32;99663.81;;;2.68;88.31
41515;BME280;27247;48.020;16.720;2023-01-30T18:59:42;99675.38;;;2.76;87.58
41515;BME280;27247;48.020;16.720;2023-01-30T19:03:58;99670.41;;;2.83;86.68
41515;BME280;27247;48.020;16.720;2023-01-30T19:08:09;99676.56;;;2.93;86.46
41515;BME280;27247;48.020;16.720;2023-01-30T19:12:20;99659.94;;;3.02;86.81
41515;BME280;27247;48.020;16.720;2023-01-30T19:16:50;99657.19;;;3.04;86.47
41515;BME280;27247;48.020;16.720;2023-01-30T19:21:01;99666.91;;;3.03;86.40
41515;BME280;27247;48.020;16.720;2023-01-30T19:25:12;99663.03;;;3.07;85.66
41515;BME280;27247;48.020;16.720;2023-01-30T19:29:22;99673.19;;;3.12;85.33
41515;BME280;27247;48.020;16.720;2023-01-30T19:33:33;99668.88;;;3.11;85.38
41515;BME280;27247;48.020;16.720;2023-01-30T19:37:44;99663.69;;;3.20;84.72
41515;BME280;27247;48.020;16.720;2023-01-30T19:41:55;99678.03;;;3.28;84.91
41515;BME280;27247;48.020;16.720;2023-01-30T19:46:07;99693.59;;;3.31;85.32
41515;BME280;27247;48.020;16.720;2023-01-30T19:50:21;99689.16;;;3.31;86.74
41515;BME280;27247;48.020;16.720;2023-01-30T19:54:31;99674.25;;;3.20;88.24
41515;BME280;27247;48.020;16.720;2023-01-30T19:58:43;99675.97;;;3.10;89.12
41515;BME280;27247;48.020;16.720;2023-01-30T20:02:55;99690.13;;;3.09;88.57
41515;BME280;27247;48.020;16.720;2023-01-30T20:07:06;99678.47;;;3.12;87.42
41515;BME280;27247;48.020;16.720;2023-01-30T20:11:18;99677.16;;;3.17;87.02
41515;BME280;27247;48.020;16.720;2023-01-30T20:15:31;99669.63;;;3.13;87.18
41515;BME280;27247;48.020;16.720;2023-01-30T20:19:42;99672.00;;;3.16;86.25
41515;BME280;27247;48.020;16.720;2023-01-30T20:23:53;99675.75;;;3.13;86.02
41515;BME280;27247;48.020;16.720;2023-01-30T20:28:04;99680.03;;;3.14;85.67
41515;BME280;27247;48.020;16.720;2023-01-30T20:32:15;99674.16;;;3.11;86.04
41515;BME280;27247;48.020;16.720;2023-01-30T20:36:26;99690.84;;;3.11;86.12
41515;BME280;27247;48.020;16.720;2023-01-30T20:40:37;99676.94;;;3.09;85.95
41515;BME280;27247;48.020;16.720;2023-01-30T20:44:48;99673.16;;;3.02;86.48
41515;BME280;27247;48.020;16.720;2023-01-30T20:48:59;99681.06;;;3.02;86.99
41515;BME280;27247;48.020;16.720;2023-01-30T20:53:10;99670.66;;;3.01;87.18
41515;BME280;27247;48.020;16.720;2023-01-30T20:57:21;99678.00;;;2.97;87.17
41515;BME280;27247;48.020;16.720;2023-01-30T21:01:32;99676.06;;;2.99;87.27
41515;BME280;27247;48.020;16.720;2023-01-30T21:05:43;99690.47;;;2.95;87.69
41515;BME280;27247;48.020;16.720;2023-01-30T21:09:54;99691.31;;;2.96;87.79
41515;BME280;27247;48.020;16.720;2023-01-30T21:14:05;99681.28;;;2.89;88.37
41515;BME280;27247;48.020;16.720;2023-01-30T21:18:16;99670.06;;;2.97;86.93
41515;BME280;27247;48.020;16.720;2023-01-30T21:22:27;99687.44;;;3.00;87.15
41515;BME280;27247;48.020;16.720;2023-01-30T21:26:41;99693.13;;;2.95;87.43
41515;BME280;27247;48.020;16.720;2023-01-30T21:30:53;99687.13;;;2.93;87.63
41515;BME280;27247;48.020;16.720;2023-01-30T21:35:04;99702.44;;;2.99;87.36
41515;BME280;27247;48.020;16.720;2023-01-30T21:39:15;99705.59;;;2.93;88.38
41515;BME280;27247;48.020;16.720;2023-01-30T21:43:46;99709.34;;;2.91;88.77
41515;BME280;27247;48.020;16.720;2023-01-30T21:47:57;99704.25;;;2.99;88.91
41515;BME280;27247;48.020;16.720;2023-01-30T21:52:08;99693.28;;;3.03;88.37
41515;BME280;27247;48.020;16.720;2023-01-30T21:56:20;99693.81;;;2.97;89.14
41515;BME280;27247;48.020;16.720;2023-01-30T22:00:30;99704.13;;;3.00;88.07
41515;BME280;27247;48.020;16.720;2023-01-30T22:04:40;99715.50;;;3.01;88.23
41515;BME280;27247;48.020;16.720;2023-01-30T22:08:59;99725.09;;;3.02;87.61
41515;BME280;27247;48.020;16.720;2023-01-30T22:13:09;99727.63;;;3.03;87.65
41515;BME280;27247;48.020;16.720;2023-01-30T22:17:20;99735.84;;;3.10;87.20
41515;BME280;27247;48.020;16.720;2023-01-30T22:21:36;99743.53;;;3.13;86.99
41515;BME280;27247;48.020;16.720;2023-01-30T22:25:53;99738.97;;;3.15;87.35
41515;BME280;27247;48.020;16.720;2023-01-30T22:30:04;99742.63;;;3.24;86.55
41515;BME280;27247;48.020;16.720;2023-01-30T22:34:14;99747.31;;;3.20;86.97
41515;BME280;27247;48.020;16.720;2023-01-30T22:38:25;99736.91;;;3.18;87.19
41515;BME280;27247;48.020;16.720;2023-01-30T22:42:35;99763.88;;;3.22;87.30
41515;BME280;27247;48.020;16.720;2023-01-30T22:46:48;99762.06;;;3.23;87.02
41515;BME280;27247;48.020;16.720;2023-01-30T22:51:04;99763.88;;;3.22;87.94
41515;BME280;27247;48.020;16.720;2023-01-30T22:55:14;99767.63;;;3.19;87.11
41515;BME280;27247;48.020;16.720;2023-01-30T22:59:24;99767.47;;;3.21;86.82
41515;BME280;27247;48.020;16.720;2023-01-30T23:03:35;99771.78;;;3.22;86.59
41515;BME280;27247;48.020;16.720;2023-01-30T23:07:45;99765.69;;;3.22;87.00
41515;BME280;27247;48.020;16.720;2023-01-30T23:11:56;99762.06;;;3.23;87.24
41515;BME280;27247;48.020;16.720;2023-01-30T23:16:43;99746.63;;;3.18;87.39
41515;BME280;27247;48.020;16.720;2023-01-30T23:20:53;99744.94;;;3.17;87.72
41515;BME280;27247;48.020;16.720;2023-01-30T23:25:04;99753.75;;;3.06;87.82
41515;BME280;27247;48.020;16.720;2023-01-30T23:29:17;99767.53;;;3.10;87.90
41515;BME280;27247;48.020;16.720;2023-01-30T23:33:27;99773.19;;;3.05;87.51
41515;BME280;27247;48.020;16.720;2023-01-30T23:37:38;99788.19;;;3.05;87.40
41515;BME280;27247;48.020;16.720;2023-01-30T23:42:07;99780.41;;;3.03;88.02
41515;BME280;27247;48.020;16.720;2023-01-30T23:46:38;99778.03;;;3.00;88.42
41515;BME280;27247;48.020;16.720;2023-01-30T23:50:49;99776.34;;;2.99;88.76
41515;BME280;27247;48.020;16.720;2023-01-30T23:54:59;99782.84;;;2.95;88.59
41515;BME280;27247;48.020;16.720;2023-01-30T23:59:10;99790.91;;;2.94;88.43
